sensor_id;sensor_type;location;lat;lon;timestamp;temperature;humidity
48988;DHT22;34799;51.440;-2.534;2023-04-15T00:02:17;7.00;99.90
48988;DHT22;34799;51.440;-2.534;2023-04-15T00:04:46;6.90;99.90
48988;DHT22;34799;51.440;-2.534;2023-04-15T00:07:16;6.80;99.90
48988;DHT22;34799;51.440;-2.534;2023-04-15T00:09:47;6.80;99.90
48988;DHT22;34799;51.440;-2.534;2023-04-15T00:12:17;6.80;99.90
48988;DHT22;34799;51.440;-2.534;2023-04-15T00:14:44;7.10;99.90
48988;DHT22;34799;51.440;-2.534;2023-04-15T00:17:14;8.20;99.90
48988;DHT22;34799;51.440;-2.534;2023-04-15T00:19:46;6.80;99.90
48988;DHT22;34799;51.440;-2.534;2023-04-15T00:22:18;6.80;99.90
48988;DHT22;34799;51.440;-2.534;2023-04-15T00:24:45;6.80;99.90
48988;DHT22;34799;51.440;-2.534;2023-04-15T00:27:15;6.80;99.90
48988;DHT22;34799;51.440;-2.534;2023-04-15T00:29:46;6.80;99.90
48988;DHT22;34799;51.440;-2.534;2023-04-15T00:32:14;6.80;99.90
48988;DHT22;34799;51.440;-2.534;2023-04-15T00:34:44;7.30;99.90
48988;DHT22;34799;51.440;-2.534;2023-04-15T00:37:12;6.90;99.90
48988;DHT22;34799;51.440;-2.534;2023-04-15T00:39:39;6.90;99.90
48988;DHT22;34799;51.440;-2.534;2023-04-15T00:42:06;6.90;99.90
48988;DHT22;34799;51.440;-2.534;2023-04-15T00:44:37;6.90;99.90
48988;DHT22;34799;51.440;-2.534;2023-04-15T00:47:07;6.90;99.90
48988;DHT22;34799;51.440;-2.534;2023-04-15T00:49:42;6.90;99.90
48988;DHT22;34799;51.440;-2.534;2023-04-15T00:52:09;6.80;99.90
48988;DHT22;34799;51.440;-2.534;2023-04-15T00:54:36;6.70;99.90
48988;DHT22;34799;51.440;-2.534;2023-04-15T00:57:06;6.60;99.90
48988;DHT22;34799;51.440;-2.534;2023-04-15T00:59:36;6.50;99.90
48988;DHT22;34799;51.440;-2.534;2023-04-15T01:02:03;6.40;99.90
48988;DHT22;34799;51.440;-2.534;2023-04-15T01:04:31;7.80;99.90
48988;DHT22;34799;51.440;-2.534;2023-04-15T01:07:00;6.40;99.90
48988;DHT22;34799;51.440;-2.534;2023-04-15T01:09:35;6.50;99.90
48988;DHT22;34799;51.440;-2.534;2023-04-15T01:12:05;6.50;99.90
48988;DHT22;34799;51.440;-2.534;2023-04-15T01:14:33;6.50;99.90
48988;DHT22;34799;51.440;-2.534;2023-04-15T01:17:00;6.50;99.90
48988;DHT22;34799;51.440;-2.534;2023-04-15T01:19:31;6.50;99.90
48988;DHT22;34799;51.440;-2.534;2023-04-15T01:22:02;6.50;99.90
48988;DHT22;34799;51.440;-2.534;2023-04-15T01:24:31;6.50;99.90
48988;DHT22;34799;51.440;-2.534;2023-04-15T01:26:58;6.50;99.90
48988;DHT22;34799;51.440;-2.534;2023-04-15T01:29:25;6.30;99.90
48988;DHT22;34799;51.440;-2.534;2023-04-15T01:31:54;6.30;99.90
48988;DHT22;34799;51.440;-2.534;2023-04-15T01:34:43;6.10;99.90
48988;DHT22;34799;51.440;-2.534;2023-04-15T01:37:32;6.10;99.90
48988;DHT22;34799;51.440;-2.534;2023-04-15T01:40:01;6.20;99.90
48988;DHT22;34799;51.440;-2.534;2023-04-15T01:42:34;6.20;99.90
48988;DHT22;34799;51.440;-2.534;2023-04-15T01:45:04;6.20;99.90
48988;DHT22;34799;51.440;-2.534;2023-04-15T01:47:37;6.20;99.90
48988;DHT22;34799;51.440;-2.534;2023-04-15T01:50:06;7.90;99.90
48988;DHT22;34799;51.440;-2.534;2023-04-15T01:52:36;6.20;99.90
48988;DHT22;34799;51.440;-2.534;2023-04-15T01:55:06;6.20;99.90
48988;DHT22;34799;51.440;-2.534;2023-04-15T01:57:35;6.30;99.90
48988;DHT22;34799;51.440;-2.534;2023-04-15T02:00:07;7.00;99.90
48988;DHT22;34799;51.440;-2.534;2023-04-15T02:02:42;6.40;99.90
48988;DHT22;34799;51.440;-2.534;2023-04-15T02:05:15;6.40;99.90
48988;DHT22;34799;51.440;-2.534;2023-04-15T02:07:47;6.50;99.90
48988;DHT22;34799;51.440;-2.534;2023-04-15T02:10:18;6.50;99.90
48988;DHT22;34799;51.440;-2.534;2023-04-15T02:12:49;6.60;99.90
48988;DHT22;34799;51.440;-2.534;2023-04-15T02:15:22;8.20;99.90
48988;DHT22;34799;51.440;-2.534;2023-04-15T02:17:50;6.70;99.90
48988;DHT22;34799;51.440;-2.534;2023-04-15T02:20:29;6.70;99.90
48988;DHT22;34799;51.440;-2.534;2023-04-15T02:23:00;6.80;99.90
48988;DHT22;34799;51.440;-2.534;2023-04-15T02:25:31;7.60;99.90
48988;DHT22;34799;51.440;-2.534;2023-04-15T02:28:00;6.90;99.90
48988;DHT22;34799;51.440;-2.534;2023-04-15T02:30:30;6.90;99.90
48988;DHT22;34799;51.440;-2.534;2023-04-15T02:33:02;6.90;99.90
48988;DHT22;34799;51.440;-2.534;2023-04-15T02:35:30;6.90;99.90
48988;DHT22;34799;51.440;-2.534;2023-04-15T02:38:00;6.90;99.90
48988;DHT22;34799;51.440;-2.534;2023-04-15T02:40:30;6.80;99.90
48988;DHT22;34799;51.440;-2.534;2023-04-15T02:43:02;6.70;99.90
48988;DHT22;34799;51.440;-2.534;2023-04-15T02:45:32;6.60;99.90
48988;DHT22;34799;51.440;-2.534;2023-04-15T02:48:03;6.50;99.90
48988;DHT22;34799;51.440;-2.534;2023-04-15T02:50:33;6.50;99.90
48988;DHT22;34799;51.440;-2.534;2023-04-15T02:53:01;6.40;99.90
48988;DHT22;34799;51.440;-2.534;2023-04-15T02:55:31;6.40;99.90
48988;DHT22;34799;51.440;-2.534;2023-04-15T02:58:02;6.40;99.90
48988;DHT22;34799;51.440;-2.534;2023-04-15T03:00:33;5.40;99.90
48988;DHT22;34799;51.440;-2.534;2023-04-15T03:03:04;6.30;99.90
48988;DHT22;34799;51.440;-2.534;2023-04-15T03:05:46;6.20;99.90
48988;DHT22;34799;51.440;-2.534;2023-04-15T03:08:17;6.10;99.90
48988;DHT22;34799;51.440;-2.534;2023-04-15T03:10:48;7.00;99.90
48988;DHT22;34799;51.440;-2.534;2023-04-15T03:13:19;6.10;99.90
48988;DHT22;34799;51.440;-2.534;2023-04-15T03:15:48;6.10;99.90
48988;DHT22;34799;51.440;-2.534;2023-04-15T03:18:24;6.00;99.90
48988;DHT22;34799;51.440;-2.534;2023-04-15T03:20:53;6.00;99.90
48988;DHT22;34799;51.440;-2.534;2023-04-15T03:23:22;6.00;99.90
48988;DHT22;34799;51.440;-2.534;2023-04-15T03:25:56;6.00;99.90
48988;DHT22;34799;51.440;-2.534;2023-04-15T03:28:28;6.00;99.90
48988;DHT22;34799;51.440;-2.534;2023-04-15T03:31:02;6.00;99.90
48988;DHT22;34799;51.440;-2.534;2023-04-15T03:33:31;5.90;99.90
48988;DHT22;34799;51.440;-2.534;2023-04-15T03:36:07;5.90;99.90
48988;DHT22;34799;51.440;-2.534;2023-04-15T03:38:38;5.90;99.90
48988;DHT22;34799;51.440;-2.534;2023-04-15T03:41:08;5.90;99.90
48988;DHT22;34799;51.440;-2.534;2023-04-15T03:43:39;6.00;99.90
48988;DHT22;34799;51.440;-2.534;2023-04-15T03:46:07;6.00;99.90
48988;DHT22;34799;51.440;-2.534;2023-04-15T03:48:36;7.00;99.90
48988;DHT22;34799;51.440;-2.534;2023-04-15T03:51:07;7.40;99.90
48988;DHT22;34799;51.440;-2.534;2023-04-15T03:53:39;6.00;99.90
48988;DHT22;34799;51.440;-2.534;2023-04-15T03:56:07;6.10;99.90
48988;DHT22;34799;51.440;-2.534;2023-04-15T03:58:35;6.10;99.90
48988;DHT22;34799;51.440;-2.534;2023-04-15T04:01:13;6.10;99.90
48988;DHT22;34799;51.440;-2.534;2023-04-15T04:03:42;6.10;99.90
48988;DHT22;34799;51.440;-2.534;2023-04-15T04:06:13;6.10;99.90
48988;DHT22;34799;51.440;-2.534;2023-04-15T04:08:44;6.20;99.90
48988;DHT22;34799;51.440;-2.534;2023-04-15T04:11:12;6.10;99.90
48988;DHT22;34799;51.440;-2.534;2023-04-15T04:13:42;6.10;99.90
48988;DHT22;34799;51.440;-2.534;2023-04-15T04:16:10;6.00;99.90
48988;DHT22;34799;51.440;-2.534;2023-04-15T04:18:38;6.00;99.90
48988;DHT22;34799;51.440;-2.534;2023-04-15T04:21:06;5.90;99.90
48988;DHT22;34799;51.440;-2.534;2023-04-15T04:23:36;5.80;99.90
48988;DHT22;34799;51.440;-2.534;2023-04-15T04:26:04;5.80;99.90
48988;DHT22;34799;51.440;-2.534;2023-04-15T04:28:33;5.70;99.90
48988;DHT22;34799;51.440;-2.534;2023-04-15T04:31:06;5.70;99.90
48988;DHT22;34799;51.440;-2.534;2023-04-15T04:33:37;5.70;99.90
48988;DHT22;34799;51.440;-2.534;2023-04-15T04:36:06;5.70;99.90
48988;DHT22;34799;51.440;-2.534;2023-04-15T04:38:35;5.60;99.90
48988;DHT22;34799;51.440;-2.534;2023-04-15T04:41:04;5.50;99.90
48988;DHT22;34799;51.440;-2.534;2023-04-15T04:43:36;5.50;99.90
48988;DHT22;34799;51.440;-2.534;2023-04-15T04:46:06;5.50;99.90
48988;DHT22;34799;51.440;-2.534;2023-04-15T04:48:40;5.40;99.90
48988;DHT22;34799;51.440;-2.534;2023-04-15T04:51:08;5.40;99.90
48988;DHT22;34799;51.440;-2.534;2023-04-15T04:53:38;5.40;99.90
48988;DHT22;34799;51.440;-2.534;2023-04-15T04:56:08;5.40;99.90
48988;DHT22;34799;51.440;-2.534;2023-04-15T04:58:38;5.40;99.90
48988;DHT22;34799;51.440;-2.534;2023-04-15T05:01:09;5.40;99.90
48988;DHT22;34799;51.440;-2.534;2023-04-15T05:03:45;5.30;99.90
48988;DHT22;34799;51.440;-2.534;2023-04-15T05:06:13;5.30;99.90
48988;DHT22;34799;51.440;-2.534;2023-04-15T05:08:45;5.30;99.90
48988;DHT22;34799;51.440;-2.534;2023-04-15T05:11:14;5.30;99.90
48988;DHT22;34799;51.440;-2.534;2023-04-15T05:13:47;5.30;99.90
48988;DHT22;34799;51.440;-2.534;2023-04-15T05:16:17;5.30;99.90
48988;DHT22;34799;51.440;-2.534;2023-04-15T05:18:49;5.30;99.90
48988;DHT22;34799;51.440;-2.534;2023-04-15T05:21:17;5.20;99.90
48988;DHT22;34799;51.440;-2.534;2023-04-15T05:23:46;5.20;99.90
48988;DHT22;34799;51.440;-2.534;2023-04-15T05:26:16;5.20;99.90
48988;DHT22;34799;51.440;-2.534;2023-04-15T05:28:47;5.20;99.90
48988;DHT22;34799;51.440;-2.534;2023-04-15T05:31:17;5.20;99.90
48988;DHT22;34799;51.440;-2.534;2023-04-15T05:33:45;8.20;99.90
48988;DHT22;34799;51.440;-2.534;2023-04-15T05:36:16;5.30;99.90
48988;DHT22;34799;51.440;-2.534;2023-04-15T05:38:45;5.30;99.90
48988;DHT22;34799;51.440;-2.534;2023-04-15T05:41:13;5.30;99.90
48988;DHT22;34799;51.440;-2.534;2023-04-15T05:43:47;5.40;99.90
48988;DHT22;34799;51.440;-2.534;2023-04-15T05:46:22;5.40;99.90
48988;DHT22;34799;51.440;-2.534;2023-04-15T05:48:50;5.40;99.90
48988;DHT22;34799;51.440;-2.534;2023-04-15T05:51:19;5.40;99.90
48988;DHT22;34799;51.440;-2.534;2023-04-15T05:53:49;5.40;99.90
48988;DHT22;34799;51.440;-2.534;2023-04-15T05:56:17;5.50;99.90
48988;DHT22;34799;51.440;-2.534;2023-04-15T05:58:48;5.50;99.90
48988;DHT22;34799;51.440;-2.534;2023-04-15T06:01:19;5.50;99.90
48988;DHT22;34799;51.440;-2.534;2023-04-15T06:03:50;5.60;99.90
48988;DHT22;34799;51.440;-2.534;2023-04-15T06:06:18;5.60;99.90
48988;DHT22;34799;51.440;-2.534;2023-04-15T06:08:50;5.70;99.90
48988;DHT22;34799;51.440;-2.534;2023-04-15T06:11:26;5.70;99.90
48988;DHT22;34799;51.440;-2.534;2023-04-15T06:13:55;5.80;99.90
48988;DHT22;34799;51.440;-2.534;2023-04-15T06:16:24;5.90;99.90
48988;DHT22;34799;51.440;-2.534;2023-04-15T06:19:00;6.00;99.90
48988;DHT22;34799;51.440;-2.534;2023-04-15T06:21:34;7.40;99.90
48988;DHT22;34799;51.440;-2.534;2023-04-15T06:24:05;6.00;99.90
48988;DHT22;34799;51.440;-2.534;2023-04-15T06:26:33;6.10;99.90
48988;DHT22;34799;51.440;-2.534;2023-04-15T06:29:07;6.20;99.90
48988;DHT22;34799;51.440;-2.534;2023-04-15T06:31:38;6.30;99.90
48988;DHT22;34799;51.440;-2.534;2023-04-15T06:34:07;6.40;99.90
48988;DHT22;34799;51.440;-2.534;2023-04-15T06:36:38;6.50;99.90
48988;DHT22;34799;51.440;-2.534;2023-04-15T06:39:08;6.40;99.90
48988;DHT22;34799;51.440;-2.534;2023-04-15T06:41:37;6.30;99.90
48988;DHT22;34799;51.440;-2.534;2023-04-15T06:44:05;6.20;99.90
48988;DHT22;34799;51.440;-2.534;2023-04-15T06:46:35;6.20;99.90
48988;DHT22;34799;51.440;-2.534;2023-04-15T06:49:05;6.20;99.90
48988;DHT22;34799;51.440;-2.534;2023-04-15T06:51:35;6.30;99.90
48988;DHT22;34799;51.440;-2.534;2023-04-15T06:54:06;6.40;99.90
48988;DHT22;34799;51.440;-2.534;2023-04-15T06:56:39;6.40;99.90
48988;DHT22;34799;51.440;-2.534;2023-04-15T06:59:13;6.50;99.90
48988;DHT22;34799;51.440;-2.534;2023-04-15T07:01:41;6.60;99.90
48988;DHT22;34799;51.440;-2.534;2023-04-15T07:04:10;6.70;99.90
48988;DHT22;34799;51.440;-2.534;2023-04-15T07:06:42;6.90;99.90
48988;DHT22;34799;51.440;-2.534;2023-04-15T07:09:15;7.00;99.90
48988;DHT22;34799;51.440;-2.534;2023-04-15T07:11:45;7.20;99.90
48988;DHT22;34799;51.440;-2.534;2023-04-15T07:14:17;7.30;99.90
48988;DHT22;34799;51.440;-2.534;2023-04-15T07:16:45;7.40;99.90
48988;DHT22;34799;51.440;-2.534;2023-04-15T07:19:16;7.40;99.90
48988;DHT22;34799;51.440;-2.534;2023-04-15T07:21:46;7.80;99.90
48988;DHT22;34799;51.440;-2.534;2023-04-15T07:24:17;7.50;99.90
48988;DHT22;34799;51.440;-2.534;2023-04-15T07:26:47;7.50;99.90
48988;DHT22;34799;51.440;-2.534;2023-04-15T07:29:15;7.60;99.90
48988;DHT22;34799;51.440;-2.534;2023-04-15T07:31:44;7.60;99.90
48988;DHT22;34799;51.440;-2.534;2023-04-15T07:34:13;7.70;99.90
48988;DHT22;34799;51.440;-2.534;2023-04-15T07:36:46;7.70;99.90
48988;DHT22;34799;51.440;-2.534;2023-04-15T07:39:17;7.70;99.90
48988;DHT22;34799;51.440;-2.534;2023-04-15T07:41:46;7.80;99.90
48988;DHT22;34799;51.440;-2.534;2023-04-15T07:44:15;7.90;99.90
48988;DHT22;34799;51.440;-2.534;2023-04-15T07:46:46;7.80;99.90
48988;DHT22;34799;51.440;-2.534;2023-04-15T07:49:20;7.80;99.90
48988;DHT22;34799;51.440;-2.534;2023-04-15T07:51:55;7.80;99.90
48988;DHT22;34799;51.440;-2.534;2023-04-15T07:54:27;7.90;99.90
48988;DHT22;34799;51.440;-2.534;2023-04-15T07:57:00;8.00;99.90
48988;DHT22;34799;51.440;-2.534;2023-04-15T07:59:32;8.00;99.90
48988;DHT22;34799;51.440;-2.534;2023-04-15T08:02:02;8.10;99.90
48988;DHT22;34799;51.440;-2.534;2023-04-15T08:04:30;8.10;99.90
48988;DHT22;34799;51.440;-2.534;2023-04-15T08:06:59;8.20;99.90
48988;DHT22;34799;51.440;-2.534;2023-04-15T08:09:41;8.20;99.90
48988;DHT22;34799;51.440;-2.534;2023-04-15T08:12:14;8.10;99.90
48988;DHT22;34799;51.440;-2.534;2023-04-15T08:14:43;8.00;99.90
48988;DHT22;34799;51.440;-2.534;2023-04-15T08:17:14;8.20;99.90
48988;DHT22;34799;51.440;-2.534;2023-04-15T08:19:47;8.20;99.90
48988;DHT22;34799;51.440;-2.534;2023-04-15T08:22:20;8.20;99.90
48988;DHT22;34799;51.440;-2.534;2023-04-15T08:24:55;8.30;99.90
48988;DHT22;34799;51.440;-2.534;2023-04-15T08:27:29;8.30;99.90
48988;DHT22;34799;51.440;-2.534;2023-04-15T08:29:58;8.40;99.90
48988;DHT22;34799;51.440;-2.534;2023-04-15T08:32:30;8.40;99.90
48988;DHT22;34799;51.440;-2.534;2023-04-15T08:34:58;8.50;99.90
48988;DHT22;34799;51.440;-2.534;2023-04-15T08:37:29;8.60;99.90
48988;DHT22;34799;51.440;-2.534;2023-04-15T08:39:58;8.60;99.90
48988;DHT22;34799;51.440;-2.534;2023-04-15T08:42:36;8.70;99.90
48988;DHT22;34799;51.440;-2.534;2023-04-15T08:45:16;9.40;99.90
48988;DHT22;34799;51.440;-2.534;2023-04-15T08:47:47;8.90;99.90
48988;DHT22;34799;51.440;-2.534;2023-04-15T08:50:19;9.50;99.90
48988;DHT22;34799;51.440;-2.534;2023-04-15T08:52:48;8.90;99.90
48988;DHT22;34799;51.440;-2.534;2023-04-15T08:55:17;9.30;99.90
48988;DHT22;34799;51.440;-2.534;2023-04-15T08:57:50;8.90;99.90
48988;DHT22;34799;51.440;-2.534;2023-04-15T09:00:23;8.90;99.90
48988;DHT22;34799;51.440;-2.534;2023-04-15T09:02:56;9.00;99.90
48988;DHT22;34799;51.440;-2.534;2023-04-15T09:05:28;9.00;99.90
48988;DHT22;34799;51.440;-2.534;2023-04-15T09:08:01;8.90;99.90
48988;DHT22;34799;51.440;-2.534;2023-04-15T09:10:32;8.90;99.90
48988;DHT22;34799;51.440;-2.534;2023-04-15T09:13:01;9.10;99.90
48988;DHT22;34799;51.440;-2.534;2023-04-15T09:15:32;9.00;99.90
48988;DHT22;34799;51.440;-2.534;2023-04-15T09:18:00;9.00;99.90
48988;DHT22;34799;51.440;-2.534;2023-04-15T09:20:29;10.90;99.90
48988;DHT22;34799;51.440;-2.534;2023-04-15T09:22:58;9.20;99.90
48988;DHT22;34799;51.440;-2.534;2023-04-15T09:25:28;9.50;99.90
48988;DHT22;34799;51.440;-2.534;2023-04-15T09:28:00;9.40;99.90
48988;DHT22;34799;51.440;-2.534;2023-04-15T09:30:31;9.50;99.90
48988;DHT22;34799;51.440;-2.534;2023-04-15T09:33:01;9.50;99.90
48988;DHT22;34799;51.440;-2.534;2023-04-15T09:35:29;9.50;99.90
48988;DHT22;34799;51.440;-2.534;2023-04-15T09:38:03;10.40;99.90
48988;DHT22;34799;51.440;-2.534;2023-04-15T09:40:39;9.70;99.90
48988;DHT22;34799;51.440;-2.534;2023-04-15T09:43:12;9.70;99.90
48988;DHT22;34799;51.440;-2.534;2023-04-15T09:45:50;10.30;99.90
48988;DHT22;34799;51.440;-2.534;2023-04-15T09:48:24;10.70;99.90
48988;DHT22;34799;51.440;-2.534;2023-04-15T09:51:04;10.10;99.90
48988;DHT22;34799;51.440;-2.534;2023-04-15T09:53:36;10.10;99.90
48988;DHT22;34799;51.440;-2.534;2023-04-15T09:56:09;10.10;99.90
48988;DHT22;34799;51.440;-2.534;2023-04-15T09:58:39;10.10;99.90
48988;DHT22;34799;51.440;-2.534;2023-04-15T10:01:12;9.90;99.90
48988;DHT22;34799;51.440;-2.534;2023-04-15T10:03:41;9.90;99.90
48988;DHT22;34799;51.440;-2.534;2023-04-15T10:06:19;9.90;99.90
48988;DHT22;34799;51.440;-2.534;2023-04-15T10:08:48;10.00;99.90
48988;DHT22;34799;51.440;-2.534;2023-04-15T10:11:18;10.00;99.90
48988;DHT22;34799;51.440;-2.534;2023-04-15T10:13:50;10.10;99.90
48988;DHT22;34799;51.440;-2.534;2023-04-15T10:16:24;10.60;99.90
48988;DHT22;34799;51.440;-2.534;2023-04-15T10:18:57;10.40;99.90
48988;DHT22;34799;51.440;-2.534;2023-04-15T10:21:32;10.50;99.90
48988;DHT22;34799;51.440;-2.534;2023-04-15T10:24:01;10.60;99.90
48988;DHT22;34799;51.440;-2.534;2023-04-15T10:26:34;10.50;99.90
48988;DHT22;34799;51.440;-2.534;2023-04-15T10:29:03;10.50;99.90
48988;DHT22;34799;51.440;-2.534;2023-04-15T10:31:35;10.40;99.90
48988;DHT22;34799;51.440;-2.534;2023-04-15T10:34:10;10.80;99.90
48988;DHT22;34799;51.440;-2.534;2023-04-15T10:36:39;10.40;99.90
48988;DHT22;34799;51.440;-2.534;2023-04-15T10:42:09;10.90;99.90
48988;DHT22;34799;51.440;-2.534;2023-04-15T10:44:49;11.00;99.90
48988;DHT22;34799;51.440;-2.534;2023-04-15T10:47:21;11.00;99.90
48988;DHT22;34799;51.440;-2.534;2023-04-15T10:49:58;11.20;99.90
48988;DHT22;34799;51.440;-2.534;2023-04-15T10:52:32;11.60;99.90
48988;DHT22;34799;51.440;-2.534;2023-04-15T10:55:18;11.60;99.90
48988;DHT22;34799;51.440;-2.534;2023-04-15T10:57:58;11.60;99.90
48988;DHT22;34799;51.440;-2.534;2023-04-15T11:00:30;11.60;99.90
48988;DHT22;34799;51.440;-2.534;2023-04-15T11:03:09;11.70;99.90
48988;DHT22;34799;51.440;-2.534;2023-04-15T11:08:09;12.00;99.90
48988;DHT22;34799;51.440;-2.534;2023-04-15T11:13:16;12.00;99.90
48988;DHT22;34799;51.440;-2.534;2023-04-15T11:15:47;11.90;99.90
48988;DHT22;34799;51.440;-2.534;2023-04-15T11:18:20;12.20;99.90
48988;DHT22;34799;51.440;-2.534;2023-04-15T11:20:58;12.20;99.90
48988;DHT22;34799;51.440;-2.534;2023-04-15T11:23:34;12.20;99.90
48988;DHT22;34799;51.440;-2.534;2023-04-15T11:26:06;11.60;99.90
48988;DHT22;34799;51.440;-2.534;2023-04-15T11:28:41;11.70;99.90
48988;DHT22;34799;51.440;-2.534;2023-04-15T11:31:13;11.70;99.90
48988;DHT22;34799;51.440;-2.534;2023-04-15T11:33:52;11.70;99.90
48988;DHT22;34799;51.440;-2.534;2023-04-15T11:36:25;11.70;99.90
48988;DHT22;34799;51.440;-2.534;2023-04-15T11:39:03;11.80;99.90
48988;DHT22;34799;51.440;-2.534;2023-04-15T11:41:43;12.00;99.90
48988;DHT22;34799;51.440;-2.534;2023-04-15T11:44:19;12.40;99.90
48988;DHT22;34799;51.440;-2.534;2023-04-15T11:46:47;12.80;99.90
48988;DHT22;34799;51.440;-2.534;2023-04-15T11:49:29;12.70;99.90
48988;DHT22;34799;51.440;-2.534;2023-04-15T11:51:56;12.80;99.90
48988;DHT22;34799;51.440;-2.534;2023-04-15T11:54:26;12.80;99.90
48988;DHT22;34799;51.440;-2.534;2023-04-15T11:56:53;13.20;99.90
48988;DHT22;34799;51.440;-2.534;2023-04-15T11:59:22;12.80;99.90
48988;DHT22;34799;51.440;-2.534;2023-04-15T12:01:50;12.80;99.90
48988;DHT22;34799;51.440;-2.534;2023-04-15T12:04:18;13.10;99.90
48988;DHT22;34799;51.440;-2.534;2023-04-15T12:06:50;13.30;99.90
48988;DHT22;34799;51.440;-2.534;2023-04-15T12:09:19;13.50;99.90
48988;DHT22;34799;51.440;-2.534;2023-04-15T12:11:50;13.80;99.90
48988;DHT22;34799;51.440;-2.534;2023-04-15T12:14:55;14.00;99.90
48988;DHT22;34799;51.440;-2.534;2023-04-15T12:17:39;14.00;99.90
48988;DHT22;34799;51.440;-2.534;2023-04-15T12:20:06;13.70;99.90
48988;DHT22;34799;51.440;-2.534;2023-04-15T12:22:36;13.60;99.90
48988;DHT22;34799;51.440;-2.534;2023-04-15T12:25:07;13.50;99.90
48988;DHT22;34799;51.440;-2.534;2023-04-15T12:27:34;13.40;99.90
48988;DHT22;34799;51.440;-2.534;2023-04-15T12:30:06;13.40;99.90
48988;DHT22;34799;51.440;-2.534;2023-04-15T12:32:38;13.30;99.90
48988;DHT22;34799;51.440;-2.534;2023-04-15T12:35:09;13.90;99.90
48988;DHT22;34799;51.440;-2.534;2023-04-15T12:37:47;13.40;99.90
48988;DHT22;34799;51.440;-2.534;2023-04-15T12:40:15;13.50;99.90
48988;DHT22;34799;51.440;-2.534;2023-04-15T12:42:45;13.70;99.90
48988;DHT22;34799;51.440;-2.534;2023-04-15T12:45:14;13.90;99.90
48988;DHT22;34799;51.440;-2.534;2023-04-15T12:47:45;13.90;99.90
48988;DHT22;34799;51.440;-2.534;2023-04-15T12:50:12;14.10;99.90
48988;DHT22;34799;51.440;-2.534;2023-04-15T12:52:46;14.10;99.90
48988;DHT22;34799;51.440;-2.534;2023-04-15T12:55:13;14.30;99.90
48988;DHT22;34799;51.440;-2.534;2023-04-15T12:57:40;14.60;99.90
48988;DHT22;34799;51.440;-2.534;2023-04-15T13:00:07;14.90;99.90
48988;DHT22;34799;51.440;-2.534;2023-04-15T13:02:35;14.80;99.90
48988;DHT22;34799;51.440;-2.534;2023-04-15T13:05:03;14.70;99.90
48988;DHT22;34799;51.440;-2.534;2023-04-15T13:07:31;14.60;99.90
48988;DHT22;34799;51.440;-2.534;2023-04-15T13:09:58;14.60;99.90
48988;DHT22;34799;51.440;-2.534;2023-04-15T13:12:26;14.50;99.90
48988;DHT22;34799;51.440;-2.534;2023-04-15T13:14:53;14.40;99.90
48988;DHT22;34799;51.440;-2.534;2023-04-15T13:17:24;14.50;99.90
48988;DHT22;34799;51.440;-2.534;2023-04-15T13:19:54;14.50;99.90
48988;DHT22;34799;51.440;-2.534;2023-04-15T13:22:23;14.80;99.90
48988;DHT22;34799;51.440;-2.534;2023-04-15T13:24:53;14.90;99.90
48988;DHT22;34799;51.440;-2.534;2023-04-15T13:27:23;14.80;99.90
48988;DHT22;34799;51.440;-2.534;2023-04-15T13:29:53;14.80;99.90
48988;DHT22;34799;51.440;-2.534;2023-04-15T13:32:24;15.00;99.90
48988;DHT22;34799;51.440;-2.534;2023-04-15T13:34:54;15.20;99.90
48988;DHT22;34799;51.440;-2.534;2023-04-15T13:37:28;15.50;99.90
48988;DHT22;34799;51.440;-2.534;2023-04-15T13:40:00;15.30;99.90
48988;DHT22;34799;51.440;-2.534;2023-04-15T13:42:31;15.40;99.90
48988;DHT22;34799;51.440;-2.534;2023-04-15T13:45:06;15.50;99.90
48988;DHT22;34799;51.440;-2.534;2023-04-15T13:47:35;15.40;99.90
48988;DHT22;34799;51.440;-2.534;2023-04-15T13:50:03;15.50;99.90
48988;DHT22;34799;51.440;-2.534;2023-04-15T13:52:33;15.80;99.90
48988;DHT22;34799;51.440;-2.534;2023-04-15T13:55:00;16.10;99.90
48988;DHT22;34799;51.440;-2.534;2023-04-15T13:57:30;16.40;99.90
48988;DHT22;34799;51.440;-2.534;2023-04-15T13:59:57;16.50;99.90
48988;DHT22;34799;51.440;-2.534;2023-04-15T14:02:27;16.50;99.90
48988;DHT22;34799;51.440;-2.534;2023-04-15T14:04:54;16.50;99.90
48988;DHT22;34799;51.440;-2.534;2023-04-15T14:07:21;16.40;99.70
48988;DHT22;34799;51.440;-2.534;2023-04-15T14:09:48;16.30;99.30
48988;DHT22;34799;51.440;-2.534;2023-04-15T14:12:18;16.50;99.40
48988;DHT22;34799;51.440;-2.534;2023-04-15T14:14:48;16.30;99.50
48988;DHT22;34799;51.440;-2.534;2023-04-15T14:17:27;16.40;99.90
48988;DHT22;34799;51.440;-2.534;2023-04-15T14:19:55;16.40;99.90
48988;DHT22;34799;51.440;-2.534;2023-04-15T14:22:24;16.50;99.90
48988;DHT22;34799;51.440;-2.534;2023-04-15T14:24:51;16.50;99.40
48988;DHT22;34799;51.440;-2.534;2023-04-15T14:27:25;16.60;99.40
48988;DHT22;34799;51.440;-2.534;2023-04-15T14:29:52;16.80;99.90
48988;DHT22;34799;51.440;-2.534;2023-04-15T14:32:24;17.00;99.10
48988;DHT22;34799;51.440;-2.534;2023-04-15T14:35:00;17.00;98.70
48988;DHT22;34799;51.440;-2.534;2023-04-15T14:37:31;17.10;98.70
48988;DHT22;34799;51.440;-2.534;2023-04-15T14:40:03;17.00;98.80
48988;DHT22;34799;51.440;-2.534;2023-04-15T14:42:31;17.10;98.90
48988;DHT22;34799;51.440;-2.534;2023-04-15T14:44:59;17.20;98.70
48988;DHT22;34799;51.440;-2.534;2023-04-15T14:47:37;17.30;98.50
48988;DHT22;34799;51.440;-2.534;2023-04-15T14:50:08;17.40;98.20
48988;DHT22;34799;51.440;-2.534;2023-04-15T14:52:38;17.40;98.70
48988;DHT22;34799;51.440;-2.534;2023-04-15T14:55:09;17.40;98.30
48988;DHT22;34799;51.440;-2.534;2023-04-15T14:57:41;17.40;98.60
48988;DHT22;34799;51.440;-2.534;2023-04-15T15:00:11;17.50;98.30
48988;DHT22;34799;51.440;-2.534;2023-04-15T15:02:43;17.40;98.40
48988;DHT22;34799;51.440;-2.534;2023-04-15T15:05:12;17.40;98.60
48988;DHT22;34799;51.440;-2.534;2023-04-15T15:07:42;17.20;98.10
48988;DHT22;34799;51.440;-2.534;2023-04-15T15:10:14;17.20;98.50
48988;DHT22;34799;51.440;-2.534;2023-04-15T15:12:48;17.40;98.10
48988;DHT22;34799;51.440;-2.534;2023-04-15T15:15:18;17.60;98.80
48988;DHT22;34799;51.440;-2.534;2023-04-15T15:17:52;17.70;97.60
48988;DHT22;34799;51.440;-2.534;2023-04-15T15:20:22;17.90;97.80
48988;DHT22;34799;51.440;-2.534;2023-04-15T15:22:50;18.00;97.20
48988;DHT22;34799;51.440;-2.534;2023-04-15T15:25:18;17.90;97.20
48988;DHT22;34799;51.440;-2.534;2023-04-15T15:27:49;17.70;97.40
48988;DHT22;34799;51.440;-2.534;2023-04-15T15:30:20;17.70;97.60
48988;DHT22;34799;51.440;-2.534;2023-04-15T15:32:48;17.90;97.80
48988;DHT22;34799;51.440;-2.534;2023-04-15T15:35:17;18.10;97.90
48988;DHT22;34799;51.440;-2.534;2023-04-15T15:37:47;18.40;97.50
48988;DHT22;34799;51.440;-2.534;2023-04-15T15:40:18;18.70;96.70
48988;DHT22;34799;51.440;-2.534;2023-04-15T15:42:45;18.90;96.60
48988;DHT22;34799;51.440;-2.534;2023-04-15T15:45:15;18.90;96.30
48988;DHT22;34799;51.440;-2.534;2023-04-15T15:47:47;19.00;97.00
48988;DHT22;34799;51.440;-2.534;2023-04-15T15:50:25;19.30;95.90
48988;DHT22;34799;51.440;-2.534;2023-04-15T15:53:00;19.40;95.50
48988;DHT22;34799;51.440;-2.534;2023-04-15T15:55:31;19.40;96.00
48988;DHT22;34799;51.440;-2.534;2023-04-15T15:57:58;19.20;95.80